Aeroporto :
LOGIN :

Iscrizione | Disclaimer

   EN    FR    IT 

 










Sommario :    VFR   VFR Marginale   IFR   IFR Intensivo   IFR Molto Intensivo
Visibilità : 
Base nubi : 
>= 8 km
>= 3000ft
5 / 8 km
1000 / 3000 ft
1500m / 5 km
500 / 1000 ft
800 / 1500m
200 / 500 ft
< 800m
< 200 ft
Simboli :   Temporali  Nebbia  Neve Forte  Precipitazioni Forti  Vento > 20 kt
SIGMETs :   Varie  Temporali  Ghiacco  Turbolenza  Onda orograficha  Ceneri Vulcaniche






- Altitudine del aeroporto : 2031 ft


LEGT - Madrid Getafe

ULTIMO METAR :
  • 031300Z 23016KT 200V290 9999 FEW045 27/12 Q1010

METARs OBSOLETI :
  • 031200Z 23014KT 200V260 9999 FEW045 27/11 Q1011
  • 031100Z 25012KT 210V290 9999 FEW045 26/12 Q1011

TAF TAF LEGT
Valido dal 03 a 12 ore il 03 a 21 ore UTC


031100Z 0312/0321 24013KT 9999 SCT045
TEMPO 0312/0320 24015G32KT
TEMPO 0316/0320 28015KT
PROB40
TEMPO 0318/0321 SHRA RA SCT040TCU
PROB30
TEMPO 0320/0321 VRB15G25KT 3000 TS SHRA SCT025CB



MetMap, La meteo Aeronautica in un colpo d'occhio ! - Copyright ORBIFLY Dicembre 2007 - Disclaimer

ORBIFLY MET'MAP TEAM :

Programmazione e sviluppo : Alexandra Zaïnal
Concezione : Baudouin d'Aumeries
Aiuto per la programmazione : Marc-Olivier Méhu
Supporto tecnico e logistico : Manuel Goepfert
Aiuto per la traduzione : Arnaldo La Scala

Contatto : metmap@orbifly.com




FONTI E CREDITI :

   NOAA